MMTM/TAM METAR and TAF weather

Enter ICAO airport designator
Station Type Date Time Source
MMTM METAR 2022/11/26 05:02 UTC NOAA

MMTM 260502Z E02013KT 6SM -DZ SCT006 BKN015 19/17 A3000 RMK 8/700 VRB COND EOS


Station Type Date Time Source
MMTM Decoded METAR 2022/11/26 05:02 UTC NOAA

Tampico / Gen Fj Mina, Mexico (MMTM) 22-17N 097-52W
Nov 26, 2022 - 12:02 AM EST / 2022.11.26 0502 UTC
Visibility: 6 mile(s):0
Sky conditions: mostly cloudy
Weather: light drizzle
Temperature: 66 F (19 C)
Dew Point: 62 F (17 C)
Relative Humidity: 88%
Pressure (altimeter): 30 in. Hg (1015 hPa)
ob: MMTM 260502Z E02013KT 6SM -DZ SCT006 BKN015 19/17 A3000 RMK 8/700 VRB COND EOS
cycle: 5

Station Type Date Time Source
MMTM TAF 2022/11/26 06:18 UTC NOAA

TAF MMTM 260511Z 2606/2706 36012KT 4SM -DZ OVC015
TEMPO 2610/2614 2SM BR -DZ SCT003 OVC007
FM261800 36015KT 5SM HZ BKN010 OVC030
FM270500 36010KT 6SM HZ SCT010 BKN030

Example: see airport list